createdAt,value
2023-05-19T00:00:47.552Z,7.70
2023-05-19T00:01:47.885Z,7.80
2023-05-19T00:02:46.444Z,7.70
2023-05-19T00:03:46.822Z,7.60
2023-05-19T00:04:47.739Z,8.00
2023-05-19T00:05:48.701Z,7.90
2023-05-19T00:06:49.579Z,8.10
2023-05-19T00:07:50.444Z,7.80
2023-05-19T00:08:51.353Z,7.80
2023-05-19T00:09:56.738Z,7.80
2023-05-19T00:10:53.114Z,8.00
2023-05-19T00:11:54.032Z,8.70
2023-05-19T00:12:54.885Z,8.10
2023-05-19T00:13:55.767Z,7.70
2023-05-19T00:14:56.659Z,8.60
2023-05-19T00:15:57.581Z,8.10
2023-05-19T00:16:58.798Z,8.20
2023-05-19T00:17:59.218Z,8.20
2023-05-19T00:19:00.272Z,8.40
2023-05-19T00:20:00.808Z,9.10
2023-05-19T00:21:01.686Z,8.80
2023-05-19T00:22:02.575Z,7.90
2023-05-19T00:23:03.472Z,8.30
2023-05-19T00:24:04.367Z,8.70
2023-05-19T00:25:10.728Z,8.80
2023-05-19T00:26:06.128Z,8.70
2023-05-19T00:27:07.007Z,9.00
2023-05-19T00:28:07.924Z,8.40
2023-05-19T00:29:08.789Z,8.40
2023-05-19T00:30:09.752Z,8.90
2023-05-19T00:31:10.604Z,8.70
2023-05-19T00:34:00.238Z,8.10
2023-05-19T00:35:01.093Z,9.00
2023-05-19T00:36:02.160Z,8.60
2023-05-19T00:37:02.493Z,8.50
2023-05-19T00:38:03.379Z,8.20
2023-05-19T00:39:04.301Z,8.30
2023-05-19T00:40:05.440Z,8.50
2023-05-19T00:41:05.846Z,8.50
2023-05-19T00:42:06.735Z,8.50
2023-05-19T00:43:07.694Z,8.80
2023-05-19T00:44:08.509Z,9.10
2023-05-19T00:45:09.404Z,8.60
2023-05-19T00:46:19.346Z,8.70
2023-05-19T00:47:11.194Z,8.60
2023-05-19T00:48:12.078Z,9.00
2023-05-19T00:49:12.972Z,8.70
2023-05-19T00:50:13.872Z,8.40
2023-05-19T00:51:14.786Z,8.30
2023-05-19T00:52:15.677Z,8.60
2023-05-19T00:53:16.541Z,8.70
2023-05-19T00:54:17.415Z,8.80
2023-05-19T00:55:18.289Z,9.80
2023-05-19T00:56:19.200Z,9.20
2023-05-19T00:57:20.073Z,8.80
2023-05-19T00:58:20.971Z,8.50
2023-05-19T00:59:24.209Z,8.40
2023-05-19T01:00:22.587Z,8.70
2023-05-19T01:01:23.559Z,9.10
2023-05-19T01:02:24.529Z,8.90
2023-05-19T01:03:25.048Z,8.90
2023-05-19T01:04:25.890Z,8.60
2023-05-19T01:05:26.770Z,9.20
2023-05-19T01:06:27.662Z,9.60
2023-05-19T01:07:28.565Z,9.30
2023-05-19T01:08:29.448Z,9.10
2023-05-19T01:09:31.656Z,8.70
2023-05-19T01:10:31.169Z,9.40
2023-05-19T01:11:31.687Z,9.70
2023-05-19T01:12:32.569Z,9.00
2023-05-19T01:13:33.488Z,9.20
2023-05-19T01:14:34.375Z,9.60
2023-05-19T01:15:35.242Z,9.70
2023-05-19T01:16:36.154Z,9.20
2023-05-19T01:17:37.026Z,9.10
2023-05-19T01:18:37.886Z,9.80
2023-05-19T01:19:38.831Z,9.40
2023-05-19T01:20:39.675Z,9.00
2023-05-19T01:21:40.583Z,9.60
2023-05-19T01:22:41.478Z,9.00
2023-05-19T01:23:42.381Z,9.00
2023-05-19T01:26:31.947Z,9.40
2023-05-19T01:27:32.859Z,8.80
2023-05-19T01:28:33.727Z,9.20
2023-05-19T01:29:34.615Z,9.40
2023-05-19T01:30:35.595Z,8.70
2023-05-19T01:31:36.521Z,8.50
2023-05-19T01:32:39.729Z,9.20
2023-05-19T01:33:38.096Z,9.20
2023-05-19T01:34:39.009Z,8.90
2023-05-19T01:35:39.866Z,9.30
2023-05-19T01:36:40.755Z,9.00
2023-05-19T01:37:41.698Z,9.40
2023-05-19T01:38:42.587Z,9.90
2023-05-19T01:39:43.476Z,9.80
2023-05-19T01:40:44.348Z,10.20
2023-05-19T01:41:45.304Z,10.10
2023-05-19T01:42:46.166Z,9.30
2023-05-19T01:43:47.071Z,9.60
2023-05-19T01:44:47.983Z,9.30
2023-05-19T01:45:48.939Z,9.40
2023-05-19T01:46:49.339Z,9.80
2023-05-19T01:47:50.576Z,11.30
2023-05-19T01:48:50.954Z,9.20
2023-05-19T01:49:51.825Z,10.10
2023-05-19T01:50:52.704Z,10.00
2023-05-19T01:51:53.614Z,10.10
2023-05-19T01:52:54.541Z,9.30
2023-05-19T01:53:57.702Z,9.10
2023-05-19T01:54:56.089Z,9.90
2023-05-19T01:55:56.966Z,10.90
2023-05-19T01:56:57.859Z,9.20
2023-05-19T01:57:58.743Z,10.20
2023-05-19T01:58:59.632Z,10.20
2023-05-19T02:00:00.560Z,10.00
2023-05-19T02:01:01.416Z,9.60
2023-05-19T02:02:02.333Z,10.10
2023-05-19T02:03:03.297Z,10.50
2023-05-19T02:04:03.755Z,10.10
2023-05-19T02:05:04.602Z,9.50
2023-05-19T02:06:05.466Z,11.00
2023-05-19T02:07:06.637Z,10.00
2023-05-19T02:08:07.020Z,11.10
2023-05-19T02:09:07.906Z,10.70
2023-05-19T02:10:08.782Z,9.80
2023-05-19T02:11:09.649Z,9.90
2023-05-19T02:12:10.532Z,11.00
2023-05-19T02:13:11.441Z,10.00
2023-05-19T02:14:12.305Z,10.20
2023-05-19T02:15:13.227Z,10.20
2023-05-19T02:16:14.149Z,9.80
2023-05-19T02:19:03.759Z,10.10
2023-05-19T02:20:04.194Z,9.80
2023-05-19T02:21:05.078Z,9.70
2023-05-19T02:22:06.044Z,9.40
2023-05-19T02:23:06.912Z,9.60
2023-05-19T02:24:07.835Z,9.90
2023-05-19T02:26:57.317Z,10.10
2023-05-19T02:27:58.189Z,10.20
2023-05-19T02:28:59.760Z,10.20
2023-05-19T02:29:59.714Z,9.80
2023-05-19T02:31:00.569Z,9.80
2023-05-19T02:32:01.669Z,9.10
2023-05-19T02:33:02.363Z,10.00
2023-05-19T02:34:02.730Z,9.80
2023-05-19T02:35:03.650Z,9.10
2023-05-19T02:36:04.534Z,9.00
2023-05-19T02:37:05.418Z,9.50
2023-05-19T02:38:06.277Z,9.30
2023-05-19T02:39:09.495Z,8.70
2023-05-19T02:40:07.912Z,9.10
2023-05-19T02:41:08.780Z,8.80
2023-05-19T02:42:09.673Z,8.90
2023-05-19T02:43:10.564Z,8.60
2023-05-19T02:44:11.429Z,8.60
2023-05-19T02:45:12.359Z,8.70
2023-05-19T02:46:13.372Z,8.90
2023-05-19T02:47:13.735Z,8.20
2023-05-19T02:48:14.950Z,9.20
2023-05-19T02:49:15.317Z,8.80
2023-05-19T02:50:16.217Z,9.20
2023-05-19T02:51:17.099Z,8.00
2023-05-19T02:52:17.983Z,8.60
2023-05-19T02:53:18.906Z,8.20
2023-05-19T02:54:19.748Z,8.10
2023-05-19T02:55:20.664Z,8.60
2023-05-19T02:56:21.542Z,8.40
2023-05-19T02:57:22.439Z,8.40
2023-05-19T02:58:23.321Z,9.10
2023-05-19T02:59:25.587Z,9.20
2023-05-19T03:00:25.198Z,8.40
2023-05-19T03:01:26.119Z,8.30
2023-05-19T03:02:27.100Z,9.20
2023-05-19T03:03:27.596Z,8.70
2023-05-19T03:04:28.034Z,8.50
2023-05-19T03:05:28.935Z,8.60
2023-05-19T03:06:29.796Z,8.20
2023-05-19T03:07:30.677Z,8.10
2023-05-19T03:10:20.365Z,8.40
2023-05-19T03:11:20.845Z,8.30
2023-05-19T03:12:21.742Z,8.80
2023-05-19T03:13:22.638Z,8.70
2023-05-19T03:14:23.493Z,9.00
2023-05-19T03:15:24.409Z,8.50
2023-05-19T03:16:28.961Z,8.00
2023-05-19T03:17:25.899Z,8.50
2023-05-19T03:18:26.374Z,8.30
2023-05-19T03:19:27.327Z,7.90
2023-05-19T03:20:27.802Z,7.80
2023-05-19T03:21:28.714Z,8.00
2023-05-19T03:22:29.619Z,7.90
2023-05-19T03:23:30.779Z,8.30
2023-05-19T03:24:31.183Z,8.20
2023-05-19T03:25:32.063Z,9.80
2023-05-19T03:26:33.155Z,8.10
2023-05-19T03:27:33.523Z,8.50
2023-05-19T03:28:34.406Z,8.50
2023-05-19T03:29:35.285Z,8.50
2023-05-19T03:30:36.215Z,8.70
2023-05-19T03:31:38.439Z,8.80
2023-05-19T03:32:37.934Z,8.40
2023-05-19T03:33:38.437Z,8.00
2023-05-19T03:34:39.291Z,8.30
2023-05-19T03:35:40.173Z,8.40
2023-05-19T03:36:41.100Z,8.40
2023-05-19T03:37:42.011Z,8.40
2023-05-19T03:38:45.212Z,8.30
2023-05-19T03:39:43.588Z,8.30
2023-05-19T03:40:44.476Z,8.40
2023-05-19T03:41:45.648Z,8.50
2023-05-19T03:42:46.022Z,8.60
2023-05-19T03:43:46.910Z,8.40
2023-05-19T03:44:47.794Z,8.40
2023-05-19T03:46:11.052Z,8.60
2023-05-19T03:46:49.468Z,8.60
2023-05-19T03:47:50.020Z,8.20
2023-05-19T03:48:50.892Z,8.10
2023-05-19T03:49:51.774Z,8.40
2023-05-19T03:50:52.657Z,8.30
2023-05-19T03:51:53.579Z,8.10
2023-05-19T03:52:55.732Z,9.00
2023-05-19T03:53:55.114Z,8.80
2023-05-19T03:54:56.205Z,9.00
2023-05-19T03:55:56.585Z,8.70
2023-05-19T03:56:57.483Z,8.20
2023-05-19T03:57:58.384Z,8.40
2023-05-19T03:58:59.255Z,8.40
2023-05-19T04:00:00.210Z,8.80
2023-05-19T04:01:02.421Z,8.50
2023-05-19T04:02:01.865Z,8.70
2023-05-19T04:03:02.912Z,8.00
2023-05-19T04:04:03.305Z,8.90
2023-05-19T04:05:04.162Z,7.60
2023-05-19T04:06:05.038Z,8.20
2023-05-19T04:07:06.028Z,7.90
2023-05-19T04:08:06.916Z,7.70
2023-05-19T04:09:07.795Z,8.00
2023-05-19T04:10:08.661Z,8.10
2023-05-19T04:11:09.565Z,8.30
2023-05-19T04:12:10.486Z,7.80
2023-05-19T04:13:11.362Z,7.80
2023-05-19T04:14:12.251Z,8.20
2023-05-19T04:15:13.122Z,8.00
2023-05-19T04:16:35.279Z,9.20
2023-05-19T04:17:14.712Z,8.10
2023-05-19T04:18:15.605Z,9.00
2023-05-19T04:19:16.531Z,8.20
2023-05-19T04:20:17.491Z,8.20
2023-05-19T04:21:18.618Z,8.10
2023-05-19T04:22:19.978Z,9.00
2023-05-19T04:25:08.626Z,8.10
2023-05-19T04:26:09.488Z,8.20
2023-05-19T04:27:10.355Z,7.40
2023-05-19T04:28:11.286Z,8.30
2023-05-19T04:29:12.165Z,8.30
2023-05-19T04:30:13.007Z,8.40
2023-05-19T04:33:02.920Z,7.90
2023-05-19T04:34:03.342Z,8.30
2023-05-19T04:35:04.210Z,8.50
2023-05-19T04:36:05.130Z,7.90
2023-05-19T04:37:06.010Z,8.30
2023-05-19T04:38:06.892Z,7.80
2023-05-19T04:39:11.217Z,8.20
2023-05-19T04:40:08.581Z,8.50
2023-05-19T04:41:09.452Z,7.90
2023-05-19T04:42:10.317Z,7.70
2023-05-19T04:43:11.225Z,7.90
2023-05-19T04:44:12.157Z,7.80
2023-05-19T04:45:13.020Z,7.70
2023-05-19T04:46:14.228Z,7.90
2023-05-19T04:47:14.639Z,7.80
2023-05-19T04:48:15.540Z,7.50
2023-05-19T04:49:16.467Z,7.20
2023-05-19T04:50:17.324Z,7.60
2023-05-19T04:51:18.228Z,7.20
2023-05-19T04:52:19.117Z,7.40
2023-05-19T04:53:19.999Z,7.40
2023-05-19T04:54:21.167Z,7.30
2023-05-19T04:55:21.537Z,7.30
2023-05-19T04:56:22.400Z,7.00
2023-05-19T04:57:23.277Z,8.60
2023-05-19T04:58:24.158Z,7.00
2023-05-19T04:59:26.382Z,7.50
2023-05-19T05:00:25.791Z,7.40
2023-05-19T05:01:26.771Z,7.20
2023-05-19T05:02:27.245Z,7.80
2023-05-19T05:03:28.223Z,7.90
2023-05-19T05:04:28.662Z,8.00
2023-05-19T05:05:29.544Z,8.00
2023-05-19T05:06:30.403Z,8.30
2023-05-19T05:07:32.561Z,7.50
2023-05-19T05:08:33.334Z,8.00
2023-05-19T05:09:32.748Z,7.60
2023-05-19T05:10:33.808Z,7.40
2023-05-19T05:11:34.367Z,7.30
2023-05-19T05:12:35.233Z,7.40
2023-05-19T05:13:36.162Z,7.20
2023-05-19T05:14:37.110Z,6.80
2023-05-19T05:15:37.961Z,7.00
2023-05-19T05:16:38.894Z,7.30
2023-05-19T05:17:39.799Z,6.90
2023-05-19T05:18:41.680Z,7.10
2023-05-19T05:19:41.424Z,6.60
2023-05-19T05:20:42.283Z,6.70
2023-05-19T05:21:43.166Z,7.70
2023-05-19T05:22:44.056Z,7.80
2023-05-19T05:23:45.204Z,7.00
2023-05-19T05:24:45.606Z,7.10
2023-05-19T05:25:46.480Z,7.40
2023-05-19T05:26:47.375Z,8.40
2023-05-19T05:27:48.253Z,7.30
2023-05-19T05:28:49.166Z,7.30
2023-05-19T05:29:51.592Z,7.30
2023-05-19T05:31:11.810Z,7.60
2023-05-19T05:31:51.158Z,7.80
2023-05-19T05:32:52.229Z,7.30
2023-05-19T05:33:52.756Z,7.20
2023-05-19T05:34:53.650Z,7.10
2023-05-19T05:35:54.528Z,6.90
2023-05-19T05:36:55.409Z,7.20
2023-05-19T05:37:56.282Z,7.60
2023-05-19T05:38:57.436Z,7.40
2023-05-19T05:39:57.898Z,7.40
2023-05-19T05:40:58.766Z,6.70
2023-05-19T05:41:59.660Z,7.30
2023-05-19T05:43:00.538Z,6.90
2023-05-19T05:44:01.411Z,7.30
2023-05-19T05:45:02.346Z,7.10
2023-05-19T05:46:03.560Z,6.90
2023-05-19T05:47:03.937Z,7.50
2023-05-19T05:48:04.830Z,7.40
2023-05-19T05:49:05.717Z,7.30
2023-05-19T05:50:06.610Z,7.30
2023-05-19T05:51:07.506Z,6.90
2023-05-19T05:52:08.384Z,7.40
2023-05-19T05:53:09.245Z,6.80
2023-05-19T05:55:58.738Z,6.60
2023-05-19T05:56:59.711Z,7.00
2023-05-19T05:58:00.596Z,7.30
2023-05-19T05:59:01.518Z,6.80
2023-05-19T06:00:02.460Z,7.20
2023-05-19T06:01:03.368Z,6.50
2023-05-19T06:03:53.166Z,7.20
2023-05-19T06:04:53.636Z,7.10
2023-05-19T06:05:54.631Z,6.60
2023-05-19T06:06:55.077Z,7.00
2023-05-19T06:07:55.988Z,6.80
2023-05-19T06:08:56.893Z,6.60
2023-05-19T06:10:00.124Z,7.30
2023-05-19T06:10:58.497Z,7.20
2023-05-19T06:11:59.379Z,6.70
2023-05-19T06:13:00.294Z,6.60
2023-05-19T06:14:01.210Z,7.00
2023-05-19T06:15:02.218Z,6.80
2023-05-19T06:16:03.118Z,6.70
2023-05-19T06:17:04.071Z,7.30
2023-05-19T06:18:05.016Z,7.20
2023-05-19T06:19:05.934Z,7.20
2023-05-19T06:20:06.827Z,7.10
2023-05-19T06:21:07.690Z,7.10
2023-05-19T06:22:08.595Z,7.10
2023-05-19T06:23:09.492Z,7.40
2023-05-19T06:24:33.746Z,7.20
2023-05-19T06:25:11.056Z,7.40
2023-05-19T06:26:11.948Z,8.30
2023-05-19T06:27:12.857Z,7.70
2023-05-19T06:28:13.776Z,7.50
2023-05-19T06:29:14.647Z,7.40
2023-05-19T06:30:15.520Z,7.10
2023-05-19T06:31:16.684Z,8.20
2023-05-19T06:32:17.101Z,7.20
2023-05-19T06:33:17.979Z,7.90
2023-05-19T06:34:18.895Z,7.60
2023-05-19T06:35:19.767Z,7.00
2023-05-19T06:36:20.631Z,7.80
2023-05-19T06:37:21.612Z,8.00
2023-05-19T06:38:22.510Z,7.80
2023-05-19T06:41:11.651Z,7.50
2023-05-19T06:42:12.579Z,7.20
2023-05-19T06:43:13.473Z,7.30
2023-05-19T06:44:14.379Z,7.50
2023-05-19T06:45:15.259Z,7.10
2023-05-19T06:46:16.164Z,7.00
2023-05-19T06:47:17.353Z,7.40
2023-05-19T06:48:17.838Z,7.20
2023-05-19T06:49:18.743Z,7.20
2023-05-19T06:50:19.606Z,7.20
2023-05-19T06:51:20.556Z,7.10
2023-05-19T06:52:21.420Z,7.30
2023-05-19T06:53:31.369Z,6.90
2023-05-19T06:54:23.225Z,6.60
2023-05-19T06:55:24.101Z,6.70
2023-05-19T06:56:24.988Z,6.10
2023-05-19T06:57:25.875Z,6.40
2023-05-19T06:58:26.880Z,6.20
2023-05-19T06:59:27.304Z,6.60
2023-05-19T07:00:28.207Z,6.30
2023-05-19T07:01:29.189Z,5.90
2023-05-19T07:02:30.198Z,6.10
2023-05-19T07:03:30.833Z,5.70
2023-05-19T07:04:31.298Z,5.30
2023-05-19T07:05:32.175Z,5.70
2023-05-19T07:06:33.101Z,5.80
2023-05-19T07:07:33.970Z,5.60
2023-05-19T07:08:34.894Z,5.40
2023-05-19T07:09:35.791Z,5.50
2023-05-19T07:10:36.645Z,6.10
2023-05-19T07:11:37.520Z,5.50
2023-05-19T07:12:38.401Z,5.70
2023-05-19T07:13:39.309Z,5.80
2023-05-19T07:14:40.192Z,5.70
2023-05-19T07:15:41.092Z,6.00
2023-05-19T07:16:42.008Z,5.50
2023-05-19T07:17:42.890Z,5.30
2023-05-19T07:18:43.785Z,5.80
2023-05-19T07:19:44.716Z,5.40
2023-05-19T07:20:45.608Z,5.00
2023-05-19T07:21:46.450Z,4.70
2023-05-19T07:24:36.124Z,5.20
2023-05-19T07:25:37.050Z,4.60
2023-05-19T07:26:37.557Z,4.80
2023-05-19T07:27:38.063Z,4.80
2023-05-19T07:28:41.464Z,4.60
2023-05-19T07:29:39.710Z,4.70
2023-05-19T07:32:29.258Z,4.30
2023-05-19T07:33:30.220Z,4.80
2023-05-19T07:34:31.164Z,4.30
2023-05-19T07:35:32.095Z,4.40
2023-05-19T07:36:33.076Z,3.90
2023-05-19T07:37:33.949Z,3.80
2023-05-19T07:40:23.518Z,3.80
2023-05-19T07:41:24.523Z,3.30
2023-05-19T07:42:24.984Z,3.50
2023-05-19T07:43:25.897Z,3.40
2023-05-19T07:44:26.804Z,3.40
2023-05-19T07:45:27.701Z,3.20
2023-05-19T07:48:17.267Z,4.10
2023-05-19T07:49:17.756Z,3.60
2023-05-19T07:50:18.643Z,3.30
2023-05-19T07:51:19.577Z,4.10
2023-05-19T07:52:20.442Z,3.50
2023-05-19T07:53:21.330Z,3.60
2023-05-19T07:54:22.519Z,3.90
2023-05-19T07:55:22.889Z,3.30
2023-05-19T07:56:23.786Z,3.50
2023-05-19T07:57:24.781Z,3.60
2023-05-19T07:58:25.676Z,3.90
2023-05-19T07:59:26.509Z,3.70
2023-05-19T08:00:27.389Z,3.20
2023-05-19T08:01:28.298Z,3.40
2023-05-19T08:02:29.230Z,3.60
2023-05-19T08:03:30.312Z,3.70
2023-05-19T08:04:30.835Z,3.20
2023-05-19T08:05:31.674Z,4.10
2023-05-19T08:06:32.555Z,3.20
2023-05-19T08:07:33.457Z,3.70
2023-05-19T08:08:34.360Z,3.80
2023-05-19T08:09:35.224Z,3.70
2023-05-19T08:10:36.112Z,4.00
2023-05-19T08:11:37.012Z,3.50
2023-05-19T08:12:37.903Z,4.10
2023-05-19T08:13:38.780Z,3.60
2023-05-19T08:14:39.680Z,3.60
2023-05-19T08:15:40.572Z,3.30
2023-05-19T08:16:41.475Z,3.60
2023-05-19T08:17:42.405Z,3.50
2023-05-19T08:18:43.294Z,3.20
2023-05-19T08:19:44.199Z,2.90
2023-05-19T08:20:45.078Z,3.20
2023-05-19T08:21:45.986Z,3.10
2023-05-19T08:22:46.880Z,3.10
2023-05-19T08:23:47.812Z,3.30
2023-05-19T08:24:48.664Z,3.50
2023-05-19T08:25:49.540Z,3.30
2023-05-19T08:26:50.436Z,3.20
2023-05-19T08:27:51.335Z,3.30
2023-05-19T08:28:52.209Z,2.50
2023-05-19T08:29:53.095Z,2.40
2023-05-19T08:30:54.020Z,3.00
2023-05-19T08:31:54.894Z,2.80
2023-05-19T08:32:55.813Z,2.70
2023-05-19T08:33:56.673Z,2.70
2023-05-19T08:34:57.565Z,3.00
2023-05-19T08:35:58.439Z,2.50
2023-05-19T08:36:59.326Z,2.90
2023-05-19T08:38:00.281Z,2.90
2023-05-19T08:39:03.612Z,2.40
2023-05-19T08:40:01.953Z,2.40
2023-05-19T08:41:02.833Z,2.30
2023-05-19T08:42:03.680Z,2.30
2023-05-19T08:43:04.589Z,2.90
2023-05-19T08:44:05.529Z,2.50
2023-05-19T08:45:06.390Z,2.50
2023-05-19T08:46:07.267Z,2.30
2023-05-19T08:47:08.332Z,2.10
2023-05-19T08:48:08.768Z,2.30
2023-05-19T08:49:09.608Z,2.30
2023-05-19T08:50:10.569Z,2.60
2023-05-19T08:51:11.417Z,2.10
2023-05-19T08:52:12.330Z,2.30
2023-05-19T08:53:24.686Z,2.20
2023-05-19T08:56:03.722Z,2.20
2023-05-19T08:57:04.605Z,2.10
2023-05-19T08:58:06.036Z,2.30
2023-05-19T08:59:06.458Z,2.30
2023-05-19T09:00:07.355Z,2.70
2023-05-19T09:01:08.258Z,2.20
2023-05-19T09:02:09.453Z,2.20
2023-05-19T09:03:18.080Z,1.80
2023-05-19T09:04:11.733Z,2.30
2023-05-19T09:05:11.161Z,2.30
2023-05-19T09:06:12.048Z,2.20
2023-05-19T09:07:12.942Z,2.30
2023-05-19T09:10:02.794Z,2.20
2023-05-19T09:11:03.735Z,2.30
2023-05-19T09:12:04.639Z,2.30
2023-05-19T09:13:05.546Z,2.40
2023-05-19T09:14:06.559Z,2.00
2023-05-19T09:15:07.487Z,2.20
2023-05-19T09:17:57.084Z,2.40
2023-05-19T09:18:57.547Z,2.10
2023-05-19T09:19:58.416Z,2.30
2023-05-19T09:20:59.328Z,2.10
2023-05-19T09:22:00.213Z,2.90
2023-05-19T09:23:01.066Z,2.30
2023-05-19T09:25:50.662Z,2.40
2023-05-19T09:26:51.683Z,2.60
2023-05-19T09:27:52.174Z,2.40
2023-05-19T09:28:53.046Z,2.30
2023-05-19T09:29:53.925Z,2.10
2023-05-19T09:30:54.814Z,2.30
2023-05-19T09:31:56.137Z,2.20
2023-05-19T09:32:56.560Z,2.60
2023-05-19T09:33:57.467Z,2.80
2023-05-19T09:34:58.324Z,2.20
2023-05-19T09:35:59.247Z,2.90
2023-05-19T09:37:00.172Z,2.50
2023-05-19T09:38:01.010Z,2.30
2023-05-19T09:39:01.892Z,2.40
2023-05-19T09:40:02.765Z,2.40
2023-05-19T09:41:03.648Z,2.80
2023-05-19T09:42:04.568Z,2.70
2023-05-19T09:43:05.067Z,2.30
2023-05-19T09:44:05.928Z,2.50
2023-05-19T09:45:06.796Z,2.10
2023-05-19T09:46:07.876Z,2.10
2023-05-19T09:47:08.427Z,2.00
2023-05-19T09:48:09.388Z,2.20
2023-05-19T09:49:32.545Z,2.30
2023-05-19T09:50:10.872Z,2.20
2023-05-19T09:51:11.750Z,2.10
2023-05-19T09:52:12.747Z,2.10
2023-05-19T09:53:13.633Z,2.60
2023-05-19T09:54:14.499Z,2.30
2023-05-19T09:55:15.374Z,2.50
2023-05-19T09:56:16.261Z,2.20
2023-05-19T09:57:17.181Z,2.40
2023-05-19T09:58:18.103Z,2.10
2023-05-19T09:59:18.958Z,2.80
2023-05-19T10:00:19.843Z,2.40
2023-05-19T10:01:20.723Z,3.00
2023-05-19T10:02:21.649Z,2.30
2023-05-19T10:03:22.524Z,2.40
2023-05-19T10:04:45.778Z,2.20
2023-05-19T10:05:24.155Z,2.20
2023-05-19T10:06:25.066Z,2.40
2023-05-19T10:07:25.954Z,2.30
2023-05-19T10:08:26.864Z,2.20
2023-05-19T10:09:27.739Z,2.30
2023-05-19T10:10:28.644Z,2.20
2023-05-19T10:11:29.579Z,2.40
2023-05-19T10:12:44.797Z,2.30
2023-05-19T10:13:31.265Z,2.30
2023-05-19T10:14:32.114Z,2.40
2023-05-19T10:15:40.744Z,2.40
2023-05-19T10:16:34.810Z,2.60
2023-05-19T10:17:34.698Z,2.80
2023-05-19T10:18:37.470Z,2.40
2023-05-19T10:19:36.211Z,2.40
2023-05-19T10:20:37.144Z,2.40
2023-05-19T10:21:37.993Z,2.40
2023-05-19T10:22:38.884Z,2.50
2023-05-19T10:23:39.761Z,2.40
2023-05-19T10:24:40.680Z,2.30
2023-05-19T10:25:41.545Z,2.60
2023-05-19T10:26:42.437Z,2.50
2023-05-19T10:27:48.839Z,2.30
2023-05-19T10:28:44.200Z,2.10
2023-05-19T10:29:45.066Z,2.40
2023-05-19T10:30:45.971Z,2.80
2023-05-19T10:31:46.873Z,2.90
2023-05-19T10:32:47.783Z,2.70
2023-05-19T10:33:48.666Z,2.50
2023-05-19T10:36:38.158Z,2.60
2023-05-19T10:37:38.708Z,2.70
2023-05-19T10:38:39.695Z,2.20
2023-05-19T10:39:40.576Z,2.20
2023-05-19T10:40:41.436Z,2.50
2023-05-19T10:41:42.318Z,2.50
2023-05-19T10:42:43.212Z,2.50
2023-05-19T10:43:44.129Z,2.50
2023-05-19T10:44:45.047Z,2.50
2023-05-19T10:45:45.990Z,2.10
2023-05-19T10:46:46.905Z,1.90
2023-05-19T10:47:47.779Z,2.20
2023-05-19T10:49:05.455Z,2.00
2023-05-19T10:49:49.252Z,2.30
2023-05-19T10:50:50.161Z,2.20
2023-05-19T10:51:51.035Z,2.20
2023-05-19T10:52:51.937Z,2.40
2023-05-19T10:53:53.119Z,2.40
2023-05-19T10:54:53.506Z,2.20
2023-05-19T10:55:54.422Z,2.20
2023-05-19T10:56:55.588Z,2.50
2023-05-19T10:57:55.965Z,2.50
2023-05-19T10:58:56.888Z,2.10
2023-05-19T10:59:57.813Z,2.30
2023-05-19T11:00:58.673Z,2.50
2023-05-19T11:01:59.598Z,2.60
2023-05-19T11:03:24.476Z,2.30
2023-05-19T11:04:01.431Z,2.60
2023-05-19T11:05:01.930Z,2.00
2023-05-19T11:06:02.862Z,2.10
2023-05-19T11:07:03.717Z,2.40
2023-05-19T11:08:04.582Z,2.20
2023-05-19T11:09:05.545Z,2.30
2023-05-19T11:10:06.500Z,2.50
2023-05-19T11:11:07.319Z,2.10
2023-05-19T11:12:08.215Z,2.40
2023-05-19T11:13:09.088Z,2.10
2023-05-19T11:14:10.087Z,2.20
2023-05-19T11:15:10.474Z,2.10
2023-05-19T11:16:11.369Z,2.10
2023-05-19T11:17:12.260Z,2.30
2023-05-19T11:18:13.147Z,2.30
2023-05-19T11:19:14.047Z,2.50
2023-05-19T11:20:14.908Z,2.40
2023-05-19T11:21:15.837Z,2.10
2023-05-19T11:22:16.719Z,2.30
2023-05-19T11:23:17.652Z,2.50
2023-05-19T11:24:18.582Z,2.20
2023-05-19T11:25:19.499Z,2.40
2023-05-19T11:26:20.371Z,2.30
2023-05-19T11:27:21.298Z,2.30
2023-05-19T11:28:22.193Z,2.30
2023-05-19T11:29:23.080Z,2.50
2023-05-19T11:30:23.941Z,2.00
2023-05-19T11:31:24.850Z,2.60
2023-05-19T11:32:25.755Z,2.40
2023-05-19T11:33:26.217Z,2.40
2023-05-19T11:34:27.157Z,2.00
2023-05-19T11:35:28.020Z,2.20
2023-05-19T11:36:28.907Z,2.70
2023-05-19T11:37:29.794Z,2.20
2023-05-19T11:38:30.676Z,1.90
2023-05-19T11:39:31.567Z,1.90
2023-05-19T11:40:32.474Z,2.30
2023-05-19T11:41:33.358Z,2.50
2023-05-19T11:44:23.249Z,2.40
2023-05-19T11:45:24.176Z,2.20
2023-05-19T11:46:24.736Z,2.40
2023-05-19T11:47:25.658Z,2.30
2023-05-19T11:48:26.627Z,2.10
2023-05-19T11:49:27.023Z,2.80
2023-05-19T11:50:27.967Z,2.50
2023-05-19T11:51:28.805Z,2.10
2023-05-19T11:52:29.765Z,2.20
2023-05-19T11:53:31.202Z,2.30
2023-05-19T11:54:31.592Z,2.30
2023-05-19T11:55:32.216Z,2.00
2023-05-19T11:56:33.103Z,2.60
2023-05-19T11:57:33.977Z,2.10
2023-05-19T11:58:34.780Z,2.50
2023-05-19T11:59:36.223Z,2.00
2023-05-19T12:00:36.276Z,2.30
2023-05-19T12:01:37.192Z,2.10
2023-05-19T12:02:38.415Z,2.80
2023-05-19T12:03:39.003Z,2.10
2023-05-19T12:04:39.557Z,2.50
2023-05-19T12:05:43.548Z,2.10
2023-05-19T12:06:41.360Z,2.00
2023-05-19T12:07:41.888Z,2.10
2023-05-19T12:10:31.562Z,2.20
2023-05-19T12:11:32.524Z,2.50
2023-05-19T12:12:33.431Z,2.20
2023-05-19T12:13:34.278Z,2.20
2023-05-19T12:14:35.169Z,2.10
2023-05-19T12:15:36.135Z,2.10
2023-05-19T12:16:36.897Z,2.00
2023-05-19T12:17:37.397Z,2.20
2023-05-19T12:18:38.309Z,2.20
2023-05-19T12:19:39.177Z,2.20
2023-05-19T12:20:40.076Z,2.20
2023-05-19T12:21:40.991Z,1.90
2023-05-19T12:22:41.867Z,1.90
2023-05-19T12:23:42.779Z,2.10
2023-05-19T12:24:43.707Z,2.00
2023-05-19T12:25:44.571Z,2.20
2023-05-19T12:26:45.499Z,2.30
2023-05-19T12:27:46.373Z,2.40
2023-05-19T12:28:47.218Z,2.50
2023-05-19T12:29:48.098Z,2.00
2023-05-19T12:30:49.023Z,2.00
2023-05-19T12:31:49.981Z,2.00
2023-05-19T12:32:50.920Z,2.20
2023-05-19T12:33:51.917Z,2.20
2023-05-19T12:34:52.400Z,2.00
2023-05-19T12:35:53.673Z,2.30
2023-05-19T12:36:54.081Z,2.10
2023-05-19T12:37:54.941Z,2.40
2023-05-19T12:38:55.882Z,2.10
2023-05-19T12:39:56.714Z,1.90
2023-05-19T12:40:57.601Z,1.90
2023-05-19T12:41:58.517Z,2.10
2023-05-19T12:42:59.507Z,2.10
2023-05-19T12:44:00.367Z,1.90
2023-05-19T12:45:03.111Z,2.20
2023-05-19T12:46:23.234Z,2.10
2023-05-19T12:47:02.648Z,2.20
2023-05-19T12:48:03.614Z,2.10
2023-05-19T12:49:04.464Z,2.10
2023-05-19T12:50:05.354Z,2.10
2023-05-19T12:51:06.246Z,2.30
2023-05-19T12:52:11.113Z,2.00
2023-05-19T12:53:11.271Z,2.20
2023-05-19T12:54:08.741Z,2.20
2023-05-19T12:55:09.185Z,2.10
2023-05-19T12:56:09.666Z,2.10
2023-05-19T12:57:10.595Z,2.00
2023-05-19T12:58:11.282Z,2.10
2023-05-19T12:59:12.283Z,2.00
2023-05-19T13:00:12.822Z,2.10
2023-05-19T13:01:13.844Z,2.10
2023-05-19T13:02:14.458Z,1.80
2023-05-19T13:03:15.035Z,1.70
2023-05-19T13:04:16.006Z,2.70
2023-05-19T13:05:16.907Z,2.20
2023-05-19T13:06:17.811Z,2.20
2023-05-19T13:07:27.617Z,2.00
2023-05-19T13:08:19.458Z,2.00
2023-05-19T13:09:20.339Z,1.90
2023-05-19T13:10:21.227Z,2.00
2023-05-19T13:11:22.102Z,2.10
2023-05-19T13:12:23.013Z,2.20
2023-05-19T13:13:23.888Z,1.90
2023-05-19T13:14:24.780Z,2.40
2023-05-19T13:15:25.655Z,1.90
2023-05-19T13:16:26.552Z,2.20
2023-05-19T13:17:27.498Z,2.00
2023-05-19T13:18:28.361Z,1.90
2023-05-19T13:19:29.276Z,2.00
2023-05-19T13:20:30.285Z,2.00
2023-05-19T13:21:30.765Z,1.90
2023-05-19T13:22:31.674Z,2.00
2023-05-19T13:23:32.542Z,2.40
2023-05-19T13:24:33.428Z,2.00
2023-05-19T13:25:34.333Z,1.80
2023-05-19T13:26:35.198Z,1.90
2023-05-19T13:27:36.101Z,1.80
2023-05-19T13:28:36.984Z,2.10
2023-05-19T13:29:37.870Z,2.10
2023-05-19T13:30:38.832Z,2.10
2023-05-19T13:31:39.289Z,1.80
2023-05-19T13:32:40.224Z,1.90
2023-05-19T13:33:41.111Z,1.90
2023-05-19T13:34:41.975Z,1.70
2023-05-19T13:35:42.879Z,2.00
2023-05-19T13:36:43.788Z,1.90
2023-05-19T13:37:44.710Z,1.70
2023-05-19T13:38:45.596Z,1.90
2023-05-19T13:39:46.501Z,1.90
2023-05-19T13:40:47.417Z,1.90
2023-05-19T13:41:48.316Z,2.00
2023-05-19T13:42:49.210Z,2.10
2023-05-19T13:43:50.086Z,1.90
2023-05-19T13:44:50.978Z,1.70
2023-05-19T13:45:51.893Z,2.00
2023-05-19T13:46:52.830Z,1.90
2023-05-19T13:47:53.778Z,2.20
2023-05-19T13:48:54.725Z,2.00
2023-05-19T13:49:55.565Z,2.00
2023-05-19T13:50:56.473Z,1.90
2023-05-19T13:51:57.369Z,1.70
2023-05-19T13:52:58.376Z,1.80
2023-05-19T13:53:59.265Z,1.90
2023-05-19T13:55:00.170Z,2.10
2023-05-19T13:56:01.107Z,1.90
2023-05-19T13:57:02.001Z,2.00
2023-05-19T13:58:02.895Z,2.10
2023-05-19T13:59:03.822Z,2.00
2023-05-19T14:00:04.801Z,1.70
2023-05-19T14:01:08.031Z,2.70
2023-05-19T14:02:06.565Z,2.30
2023-05-19T14:03:07.141Z,2.40
2023-05-19T14:04:07.768Z,1.90
2023-05-19T14:05:08.270Z,2.30
2023-05-19T14:06:09.129Z,2.40
2023-05-19T14:07:10.005Z,1.60